<?xml version="1.0" encoding="UTF-8" standalone="no" ?>
<gpx xmlns="http://www.topografix.com/GPX/1/1" xmlns:xsi="http://www.w3.org/2001/XMLSchema-instance" xsi:schemaLocation="http://www.topografix.com/GPX/1/1 http://www.topografix.com/GPX/1/1/gpx.xsd" version="1.1" creator="VisuGPX - https://www.visugpx.com">
  <metadata>
    <name>Téléthon 2024-60 kms</name>
    <desc><![CDATA[[titre]TELETHON 2024-60 kms[/titre]]]></desc>
  </metadata>
  <trk>
    <name><![CDATA[S47D_2]]></name>
    <trkseg>
      <trkpt lat="47.55489" lon="-2.48072">
        <ele>27</ele>
        <time>2023-12-07T14:44:31.787Z</time>
      </trkpt>
      <trkpt lat="47.55433" lon="-2.48144">
        <ele>25</ele>
        <time>2023-12-07T14:44:46.173Z</time>
      </trkpt>
      <trkpt lat="47.55372" lon="-2.48192">
        <ele>23</ele>
        <time>2023-12-07T14:44:52.783Z</time>
      </trkpt>
      <trkpt lat="47.5529" lon="-2.48224">
        <ele>20</ele>
        <time>2023-12-07T14:45:00.555Z</time>
      </trkpt>
      <trkpt lat="47.55323" lon="-2.48539">
        <ele>17</ele>
        <time>2023-12-07T14:45:22.057Z</time>
      </trkpt>
      <trkpt lat="47.55314" lon="-2.48635">
        <ele>14</ele>
        <time>2023-12-07T14:45:28.260Z</time>
      </trkpt>
      <trkpt lat="47.5537" lon="-2.48806">
        <ele>6</ele>
        <time>2023-12-07T14:45:37.960Z</time>
      </trkpt>
      <trkpt lat="47.5547" lon="-2.49024">
        <ele>8</ele>
        <time>2023-12-07T14:45:55.682Z</time>
      </trkpt>
      <trkpt lat="47.55568" lon="-2.49132">
        <ele>7</ele>
        <time>2023-12-07T14:46:20.133Z</time>
      </trkpt>
      <trkpt lat="47.55793" lon="-2.49517">
        <ele>14</ele>
        <time>2023-12-07T14:47:35.656Z</time>
      </trkpt>
      <trkpt lat="47.55849" lon="-2.49707">
        <ele>17</ele>
        <time>2023-12-07T14:48:03.846Z</time>
      </trkpt>
      <trkpt lat="47.55897" lon="-2.49798">
        <ele>16</ele>
        <time>2023-12-07T14:48:15.357Z</time>
      </trkpt>
      <trkpt lat="47.55944" lon="-2.49806">
        <ele>16</ele>
        <time>2023-12-07T14:48:21.348Z</time>
      </trkpt>
      <trkpt lat="47.55982" lon="-2.49754">
        <ele>16</ele>
        <time>2023-12-07T14:48:28.597Z</time>
      </trkpt>
      <trkpt lat="47.56171" lon="-2.49886">
        <ele>20</ele>
        <time>2023-12-07T14:49:02.732Z</time>
      </trkpt>
      <trkpt lat="47.56244" lon="-2.49979">
        <ele>24</ele>
        <time>2023-12-07T14:49:25.641Z</time>
      </trkpt>
      <trkpt lat="47.56326" lon="-2.50125">
        <ele>25</ele>
        <time>2023-12-07T14:49:52.496Z</time>
      </trkpt>
      <trkpt lat="47.56322" lon="-2.5014">
        <ele>24</ele>
        <time>2023-12-07T14:49:53.464Z</time>
      </trkpt>
      <trkpt lat="47.5637" lon="-2.50254">
        <ele>24</ele>
        <time>2023-12-07T14:50:01.222Z</time>
      </trkpt>
      <trkpt lat="47.56398" lon="-2.50485">
        <ele>28</ele>
        <time>2023-12-07T14:50:27.713Z</time>
      </trkpt>
      <trkpt lat="47.5644" lon="-2.50627">
        <ele>28</ele>
        <time>2023-12-07T14:50:45.213Z</time>
      </trkpt>
      <trkpt lat="47.56521" lon="-2.50629">
        <ele>33</ele>
        <time>2023-12-07T14:51:01.854Z</time>
      </trkpt>
      <trkpt lat="47.56598" lon="-2.50652">
        <ele>36</ele>
        <time>2023-12-07T14:51:26.622Z</time>
      </trkpt>
      <trkpt lat="47.56949" lon="-2.50806">
        <ele>38</ele>
        <time>2023-12-07T14:52:38.091Z</time>
      </trkpt>
      <trkpt lat="47.56951" lon="-2.50822">
        <ele>39</ele>
        <time>2023-12-07T14:52:40.699Z</time>
      </trkpt>
      <trkpt lat="47.56984" lon="-2.50855">
        <ele>38</ele>
        <time>2023-12-07T14:52:47.323Z</time>
      </trkpt>
      <trkpt lat="47.57031" lon="-2.51015">
        <ele>38</ele>
        <time>2023-12-07T14:53:00.984Z</time>
      </trkpt>
      <trkpt lat="47.57047" lon="-2.51045">
        <ele>38</ele>
        <time>2023-12-07T14:53:04.600Z</time>
      </trkpt>
      <trkpt lat="47.57099" lon="-2.51092">
        <ele>38</ele>
        <time>2023-12-07T14:53:13.135Z</time>
      </trkpt>
      <trkpt lat="47.57126" lon="-2.51101">
        <ele>38</ele>
        <time>2023-12-07T14:53:17.013Z</time>
      </trkpt>
      <trkpt lat="47.57227" lon="-2.51089">
        <ele>36</ele>
        <time>2023-12-07T14:53:29.231Z</time>
      </trkpt>
      <trkpt lat="47.57345" lon="-2.51044">
        <ele>32</ele>
        <time>2023-12-07T14:53:41.144Z</time>
      </trkpt>
      <trkpt lat="47.57429" lon="-2.51117">
        <ele>34</ele>
        <time>2023-12-07T14:53:53.327Z</time>
      </trkpt>
      <trkpt lat="47.57512" lon="-2.51158">
        <ele>37</ele>
        <time>2023-12-07T14:54:12.823Z</time>
      </trkpt>
      <trkpt lat="47.57594" lon="-2.51143">
        <ele>39</ele>
        <time>2023-12-07T14:54:31.701Z</time>
      </trkpt>
      <trkpt lat="47.57837" lon="-2.51322">
        <ele>35</ele>
        <time>2023-12-07T14:55:11.130Z</time>
      </trkpt>
      <trkpt lat="47.58064" lon="-2.5151">
        <ele>33</ele>
        <time>2023-12-07T14:55:41.666Z</time>
      </trkpt>
      <trkpt lat="47.58064" lon="-2.51511">
        <ele>33</ele>
        <time>2023-12-07T14:55:41.755Z</time>
      </trkpt>
      <trkpt lat="47.58162" lon="-2.51583">
        <ele>33</ele>
        <time>2023-12-07T14:55:57.082Z</time>
      </trkpt>
      <trkpt lat="47.58182" lon="-2.51615">
        <ele>31</ele>
        <time>2023-12-07T14:55:59.789Z</time>
      </trkpt>
      <trkpt lat="47.58243" lon="-2.51777">
        <ele>28</ele>
        <time>2023-12-07T14:56:09.966Z</time>
      </trkpt>
      <trkpt lat="47.58346" lon="-2.51851">
        <ele>30</ele>
        <time>2023-12-07T14:56:25.035Z</time>
      </trkpt>
      <trkpt lat="47.58459" lon="-2.51891">
        <ele>33</ele>
        <time>2023-12-07T14:56:49.457Z</time>
      </trkpt>
      <trkpt lat="47.58485" lon="-2.51925">
        <ele>32</ele>
        <time>2023-12-07T14:56:54.108Z</time>
      </trkpt>
      <trkpt lat="47.58524" lon="-2.52109">
        <ele>27</ele>
        <time>2023-12-07T14:57:05.811Z</time>
      </trkpt>
      <trkpt lat="47.58588" lon="-2.52239">
        <ele>25</ele>
        <time>2023-12-07T14:57:16.153Z</time>
      </trkpt>
      <trkpt lat="47.58605" lon="-2.52254">
        <ele>26</ele>
        <time>2023-12-07T14:57:19.335Z</time>
      </trkpt>
      <trkpt lat="47.58702" lon="-2.52264">
        <ele>31</ele>
        <time>2023-12-07T14:57:48.674Z</time>
      </trkpt>
      <trkpt lat="47.58776" lon="-2.52254">
        <ele>35</ele>
        <time>2023-12-07T14:58:11.422Z</time>
      </trkpt>
      <trkpt lat="47.58824" lon="-2.52196">
        <ele>37</ele>
        <time>2023-12-07T14:58:25.076Z</time>
      </trkpt>
      <trkpt lat="47.58859" lon="-2.52188">
        <ele>38</ele>
        <time>2023-12-07T14:58:31.823Z</time>
      </trkpt>
      <trkpt lat="47.58936" lon="-2.52216">
        <ele>38</ele>
        <time>2023-12-07T14:58:45.558Z</time>
      </trkpt>
      <trkpt lat="47.58974" lon="-2.52211">
        <ele>38</ele>
        <time>2023-12-07T14:58:50.904Z</time>
      </trkpt>
      <trkpt lat="47.59121" lon="-2.52112">
        <ele>37</ele>
        <time>2023-12-07T14:59:12.250Z</time>
      </trkpt>
      <trkpt lat="47.59195" lon="-2.52086">
        <ele>37</ele>
        <time>2023-12-07T14:59:22.304Z</time>
      </trkpt>
      <trkpt lat="47.59231" lon="-2.52045">
        <ele>36</ele>
        <time>2023-12-07T14:59:27.695Z</time>
      </trkpt>
      <trkpt lat="47.59257" lon="-2.51934">
        <ele>34</ele>
        <time>2023-12-07T14:59:36.108Z</time>
      </trkpt>
      <trkpt lat="47.59276" lon="-2.51904">
        <ele>34</ele>
        <time>2023-12-07T14:59:39.520Z</time>
      </trkpt>
      <trkpt lat="47.59324" lon="-2.51875">
        <ele>35</ele>
        <time>2023-12-07T14:59:47.671Z</time>
      </trkpt>
      <trkpt lat="47.59632" lon="-2.51758">
        <ele>34</ele>
        <time>2023-12-07T15:00:36.103Z</time>
      </trkpt>
      <trkpt lat="47.59733" lon="-2.51791">
        <ele>41</ele>
        <time>2023-12-07T15:00:56.677Z</time>
      </trkpt>
      <trkpt lat="47.59828" lon="-2.51707">
        <ele>46</ele>
        <time>2023-12-07T15:01:33.977Z</time>
      </trkpt>
      <trkpt lat="47.59882" lon="-2.51677">
        <ele>47</ele>
        <time>2023-12-07T15:01:47.347Z</time>
      </trkpt>
      <trkpt lat="47.59982" lon="-2.51586">
        <ele>48</ele>
        <time>2023-12-07T15:02:08.014Z</time>
      </trkpt>
      <trkpt lat="47.60291" lon="-2.51573">
        <ele>49</ele>
        <time>2023-12-07T15:02:55.911Z</time>
      </trkpt>
      <trkpt lat="47.60415" lon="-2.51486">
        <ele>48</ele>
        <time>2023-12-07T15:03:14.435Z</time>
      </trkpt>
      <trkpt lat="47.60428" lon="-2.51458">
        <ele>49</ele>
        <time>2023-12-07T15:03:18.451Z</time>
      </trkpt>
      <trkpt lat="47.60443" lon="-2.51375">
        <ele>50</ele>
        <time>2023-12-07T15:03:31.983Z</time>
      </trkpt>
      <trkpt lat="47.6051" lon="-2.51318">
        <ele>49</ele>
        <time>2023-12-07T15:03:43.129Z</time>
      </trkpt>
      <trkpt lat="47.60539" lon="-2.51308">
        <ele>49</ele>
        <time>2023-12-07T15:03:46.900Z</time>
      </trkpt>
      <trkpt lat="47.60676" lon="-2.51332">
        <ele>49</ele>
        <time>2023-12-07T15:04:06.232Z</time>
      </trkpt>
      <trkpt lat="47.60755" lon="-2.51327">
        <ele>49</ele>
        <time>2023-12-07T15:04:17.313Z</time>
      </trkpt>
      <trkpt lat="47.60955" lon="-2.51389">
        <ele>51</ele>
        <time>2023-12-07T15:04:50.781Z</time>
      </trkpt>
      <trkpt lat="47.61082" lon="-2.51358">
        <ele>53</ele>
        <time>2023-12-07T15:05:15.083Z</time>
      </trkpt>
      <trkpt lat="47.61151" lon="-2.51366">
        <ele>53</ele>
        <time>2023-12-07T15:05:26.022Z</time>
      </trkpt>
      <trkpt lat="47.61341" lon="-2.51308">
        <ele>55</ele>
        <time>2023-12-07T15:05:55.499Z</time>
      </trkpt>
      <trkpt lat="47.61358" lon="-2.51222">
        <ele>54</ele>
        <time>2023-12-07T15:06:03.746Z</time>
      </trkpt>
      <trkpt lat="47.61449" lon="-2.51052">
        <ele>54</ele>
        <time>2023-12-07T15:06:22.314Z</time>
      </trkpt>
      <trkpt lat="47.61468" lon="-2.50992">
        <ele>54</ele>
        <time>2023-12-07T15:06:28.576Z</time>
      </trkpt>
      <trkpt lat="47.61484" lon="-2.50859">
        <ele>51</ele>
        <time>2023-12-07T15:06:38.608Z</time>
      </trkpt>
      <trkpt lat="47.61568" lon="-2.51001">
        <ele>54</ele>
        <time>2023-12-07T15:06:54.784Z</time>
      </trkpt>
      <trkpt lat="47.61723" lon="-2.51203">
        <ele>57</ele>
        <time>2023-12-07T15:07:35.828Z</time>
      </trkpt>
      <trkpt lat="47.61752" lon="-2.51225">
        <ele>58</ele>
        <time>2023-12-07T15:07:42.629Z</time>
      </trkpt>
      <trkpt lat="47.62203" lon="-2.51406">
        <ele>62</ele>
        <time>2023-12-07T15:09:12.458Z</time>
      </trkpt>
      <trkpt lat="47.62285" lon="-2.51387">
        <ele>62</ele>
        <time>2023-12-07T15:09:24.949Z</time>
      </trkpt>
      <trkpt lat="47.62591" lon="-2.51367">
        <ele>71</ele>
        <time>2023-12-07T15:10:19.055Z</time>
      </trkpt>
      <trkpt lat="47.62807" lon="-2.51403">
        <ele>75</ele>
        <time>2023-12-07T15:11:05.053Z</time>
      </trkpt>
      <trkpt lat="47.6296" lon="-2.51402">
        <ele>77</ele>
        <time>2023-12-07T15:11:32.779Z</time>
      </trkpt>
      <trkpt lat="47.63061" lon="-2.5144">
        <ele>77</ele>
        <time>2023-12-07T15:11:48.924Z</time>
      </trkpt>
      <trkpt lat="47.63213" lon="-2.51554">
        <ele>77</ele>
        <time>2023-12-07T15:12:12.791Z</time>
      </trkpt>
      <trkpt lat="47.63394" lon="-2.51608">
        <ele>78</ele>
        <time>2023-12-07T15:12:39.867Z</time>
      </trkpt>
      <trkpt lat="47.63407" lon="-2.51637">
        <ele>78</ele>
        <time>2023-12-07T15:12:43.310Z</time>
      </trkpt>
      <trkpt lat="47.63397" lon="-2.51661">
        <ele>78</ele>
        <time>2023-12-07T15:12:45.974Z</time>
      </trkpt>
      <trkpt lat="47.63421" lon="-2.51598">
        <ele>78</ele>
        <time>2023-12-07T15:12:52.809Z</time>
      </trkpt>
      <trkpt lat="47.63902" lon="-2.51424">
        <ele>85</ele>
        <time>2023-12-07T15:14:09.145Z</time>
      </trkpt>
      <trkpt lat="47.64008" lon="-2.51345">
        <ele>84</ele>
        <time>2023-12-07T15:14:22.314Z</time>
      </trkpt>
      <trkpt lat="47.64037" lon="-2.51308">
        <ele>84</ele>
        <time>2023-12-07T15:14:26.274Z</time>
      </trkpt>
      <trkpt lat="47.64066" lon="-2.51231">
        <ele>83</ele>
        <time>2023-12-07T15:14:33.359Z</time>
      </trkpt>
      <trkpt lat="47.64086" lon="-2.5112">
        <ele>79</ele>
        <time>2023-12-07T15:14:40.188Z</time>
      </trkpt>
      <trkpt lat="47.6414" lon="-2.51014">
        <ele>73</ele>
        <time>2023-12-07T15:14:46.678Z</time>
      </trkpt>
      <trkpt lat="47.64167" lon="-2.50999">
        <ele>72</ele>
        <time>2023-12-07T15:14:48.917Z</time>
      </trkpt>
      <trkpt lat="47.64264" lon="-2.50986">
        <ele>69</ele>
        <time>2023-12-07T15:14:57.805Z</time>
      </trkpt>
      <trkpt lat="47.64308" lon="-2.50922">
        <ele>66</ele>
        <time>2023-12-07T15:15:03.066Z</time>
      </trkpt>
      <trkpt lat="47.64316" lon="-2.50782">
        <ele>65</ele>
        <time>2023-12-07T15:15:11.996Z</time>
      </trkpt>
      <trkpt lat="47.64396" lon="-2.50536">
        <ele>72</ele>
        <time>2023-12-07T15:15:42.141Z</time>
      </trkpt>
      <trkpt lat="47.64412" lon="-2.50438">
        <ele>75</ele>
        <time>2023-12-07T15:16:01.354Z</time>
      </trkpt>
      <trkpt lat="47.64459" lon="-2.50253">
        <ele>79</ele>
        <time>2023-12-07T15:16:36.502Z</time>
      </trkpt>
      <trkpt lat="47.6469" lon="-2.4982">
        <ele>84</ele>
        <time>2023-12-07T15:17:51.955Z</time>
      </trkpt>
      <trkpt lat="47.64738" lon="-2.4962">
        <ele>79</ele>
        <time>2023-12-07T15:18:08.878Z</time>
      </trkpt>
      <trkpt lat="47.64732" lon="-2.49573">
        <ele>78</ele>
        <time>2023-12-07T15:18:11.794Z</time>
      </trkpt>
      <trkpt lat="47.64688" lon="-2.4943">
        <ele>70</ele>
        <time>2023-12-07T15:18:19.885Z</time>
      </trkpt>
      <trkpt lat="47.64691" lon="-2.49385">
        <ele>68</ele>
        <time>2023-12-07T15:18:21.932Z</time>
      </trkpt>
      <trkpt lat="47.64758" lon="-2.49138">
        <ele>62</ele>
        <time>2023-12-07T15:18:36.011Z</time>
      </trkpt>
      <trkpt lat="47.64879" lon="-2.48962">
        <ele>59</ele>
        <time>2023-12-07T15:18:52.743Z</time>
      </trkpt>
      <trkpt lat="47.65002" lon="-2.48837">
        <ele>69</ele>
        <time>2023-12-07T15:19:18.218Z</time>
      </trkpt>
      <trkpt lat="47.65247" lon="-2.4839">
        <ele>88</ele>
        <time>2023-12-07T15:21:36.528Z</time>
      </trkpt>
      <trkpt lat="47.65302" lon="-2.48332">
        <ele>90</ele>
        <time>2023-12-07T15:21:55.026Z</time>
      </trkpt>
      <trkpt lat="47.65455" lon="-2.4821">
        <ele>92</ele>
        <time>2023-12-07T15:22:29.252Z</time>
      </trkpt>
      <trkpt lat="47.66052" lon="-2.47504">
        <ele>95</ele>
        <time>2023-12-07T15:24:30.188Z</time>
      </trkpt>
      <trkpt lat="47.66077" lon="-2.4746">
        <ele>96</ele>
        <time>2023-12-07T15:24:36.942Z</time>
      </trkpt>
      <trkpt lat="47.6613" lon="-2.47263">
        <ele>94</ele>
        <time>2023-12-07T15:24:57.945Z</time>
      </trkpt>
      <trkpt lat="47.66155" lon="-2.47218">
        <ele>94</ele>
        <time>2023-12-07T15:25:02.880Z</time>
      </trkpt>
      <trkpt lat="47.66178" lon="-2.472">
        <ele>93</ele>
        <time>2023-12-07T15:25:05.650Z</time>
      </trkpt>
      <trkpt lat="47.6621" lon="-2.47143">
        <ele>92</ele>
        <time>2023-12-07T15:25:10.361Z</time>
      </trkpt>
      <trkpt lat="47.66231" lon="-2.47037">
        <ele>90</ele>
        <time>2023-12-07T15:25:17.846Z</time>
      </trkpt>
      <trkpt lat="47.66217" lon="-2.46853">
        <ele>87</ele>
        <time>2023-12-07T15:25:30.154Z</time>
      </trkpt>
      <trkpt lat="47.66185" lon="-2.46745">
        <ele>86</ele>
        <time>2023-12-07T15:25:38.590Z</time>
      </trkpt>
      <trkpt lat="47.6616" lon="-2.46702">
        <ele>83</ele>
        <time>2023-12-07T15:25:41.718Z</time>
      </trkpt>
      <trkpt lat="47.66094" lon="-2.46632">
        <ele>87</ele>
        <time>2023-12-07T15:25:50.394Z</time>
      </trkpt>
      <trkpt lat="47.66075" lon="-2.46568">
        <ele>83</ele>
        <time>2023-12-07T15:25:55.288Z</time>
      </trkpt>
      <trkpt lat="47.66076" lon="-2.46465">
        <ele>79</ele>
        <time>2023-12-07T15:25:59.953Z</time>
      </trkpt>
      <trkpt lat="47.66094" lon="-2.46058">
        <ele>88</ele>
        <time>2023-12-07T15:26:35.093Z</time>
      </trkpt>
      <trkpt lat="47.66024" lon="-2.45418">
        <ele>98</ele>
        <time>2023-12-07T15:28:44.997Z</time>
      </trkpt>
      <trkpt lat="47.66044" lon="-2.45301">
        <ele>99</ele>
        <time>2023-12-07T15:29:00.628Z</time>
      </trkpt>
      <trkpt lat="47.66034" lon="-2.45272">
        <ele>98</ele>
        <time>2023-12-07T15:29:03.052Z</time>
      </trkpt>
      <trkpt lat="47.65825" lon="-2.45075">
        <ele>98</ele>
        <time>2023-12-07T15:29:28.396Z</time>
      </trkpt>
      <trkpt lat="47.65752" lon="-2.44982">
        <ele>98</ele>
        <time>2023-12-07T15:29:41.876Z</time>
      </trkpt>
      <trkpt lat="47.65529" lon="-2.44579">
        <ele>91</ele>
        <time>2023-12-07T15:30:24.236Z</time>
      </trkpt>
      <trkpt lat="47.6532" lon="-2.43918">
        <ele>71</ele>
        <time>2023-12-07T15:31:10.463Z</time>
      </trkpt>
      <trkpt lat="47.65008" lon="-2.4329">
        <ele>88</ele>
        <time>2023-12-07T15:32:09.134Z</time>
      </trkpt>
      <trkpt lat="47.64962" lon="-2.43114">
        <ele>86</ele>
        <time>2023-12-07T15:32:25.912Z</time>
      </trkpt>
      <trkpt lat="47.64952" lon="-2.42845">
        <ele>85</ele>
        <time>2023-12-07T15:32:47.467Z</time>
      </trkpt>
      <trkpt lat="47.64913" lon="-2.42772">
        <ele>85</ele>
        <time>2023-12-07T15:32:55.888Z</time>
      </trkpt>
      <trkpt lat="47.64709" lon="-2.42021">
        <ele>83</ele>
        <time>2023-12-07T15:34:11.166Z</time>
      </trkpt>
      <trkpt lat="47.64394" lon="-2.41873">
        <ele>91</ele>
        <time>2023-12-07T15:35:05.711Z</time>
      </trkpt>
      <trkpt lat="47.64287" lon="-2.41941">
        <ele>93</ele>
        <time>2023-12-07T15:35:29.088Z</time>
      </trkpt>
      <trkpt lat="47.64233" lon="-2.41925">
        <ele>93</ele>
        <time>2023-12-07T15:35:38.015Z</time>
      </trkpt>
      <trkpt lat="47.64092" lon="-2.41832">
        <ele>86</ele>
        <time>2023-12-07T15:35:53.862Z</time>
      </trkpt>
      <trkpt lat="47.64079" lon="-2.41807">
        <ele>85</ele>
        <time>2023-12-07T15:35:55.572Z</time>
      </trkpt>
      <trkpt lat="47.64076" lon="-2.41755">
        <ele>83</ele>
        <time>2023-12-07T15:35:58.267Z</time>
      </trkpt>
      <trkpt lat="47.64099" lon="-2.41584">
        <ele>76</ele>
        <time>2023-12-07T15:36:06.867Z</time>
      </trkpt>
      <trkpt lat="47.64091" lon="-2.41531">
        <ele>73</ele>
        <time>2023-12-07T15:36:09.334Z</time>
      </trkpt>
      <trkpt lat="47.64022" lon="-2.41371">
        <ele>79</ele>
        <time>2023-12-07T15:36:22.687Z</time>
      </trkpt>
      <trkpt lat="47.64025" lon="-2.4131">
        <ele>81</ele>
        <time>2023-12-07T15:36:35.364Z</time>
      </trkpt>
      <trkpt lat="47.63976" lon="-2.41232">
        <ele>86</ele>
        <time>2023-12-07T15:37:00.538Z</time>
      </trkpt>
      <trkpt lat="47.63686" lon="-2.40092">
        <ele>85</ele>
        <time>2023-12-07T15:39:49.198Z</time>
      </trkpt>
      <trkpt lat="47.63613" lon="-2.40084">
        <ele>80</ele>
        <time>2023-12-07T15:39:55.869Z</time>
      </trkpt>
      <trkpt lat="47.63596" lon="-2.40126">
        <ele>80</ele>
        <time>2023-12-07T15:39:58.895Z</time>
      </trkpt>
      <trkpt lat="47.63606" lon="-2.40259">
        <ele>82</ele>
        <time>2023-12-07T15:40:13.821Z</time>
      </trkpt>
      <trkpt lat="47.63574" lon="-2.40319">
        <ele>83</ele>
        <time>2023-12-07T15:40:23.615Z</time>
      </trkpt>
      <trkpt lat="47.63546" lon="-2.40381">
        <ele>84</ele>
        <time>2023-12-07T15:40:33.526Z</time>
      </trkpt>
      <trkpt lat="47.63521" lon="-2.40533">
        <ele>88</ele>
        <time>2023-12-07T15:40:59.001Z</time>
      </trkpt>
      <trkpt lat="47.63285" lon="-2.40687">
        <ele>87</ele>
        <time>2023-12-07T15:41:45.586Z</time>
      </trkpt>
      <trkpt lat="47.6326" lon="-2.40712">
        <ele>88</ele>
        <time>2023-12-07T15:41:52.009Z</time>
      </trkpt>
      <trkpt lat="47.6312" lon="-2.40214">
        <ele>88</ele>
        <time>2023-12-07T15:43:11.356Z</time>
      </trkpt>
      <trkpt lat="47.62985" lon="-2.3991">
        <ele>91</ele>
        <time>2023-12-07T15:43:49.560Z</time>
      </trkpt>
      <trkpt lat="47.62927" lon="-2.39863">
        <ele>92</ele>
        <time>2023-12-07T15:44:01.366Z</time>
      </trkpt>
      <trkpt lat="47.62848" lon="-2.39771">
        <ele>88</ele>
        <time>2023-12-07T15:44:12.997Z</time>
      </trkpt>
      <trkpt lat="47.62831" lon="-2.39688">
        <ele>89</ele>
        <time>2023-12-07T15:44:19.882Z</time>
      </trkpt>
      <trkpt lat="47.62787" lon="-2.39703">
        <ele>86</ele>
        <time>2023-12-07T15:44:24.444Z</time>
      </trkpt>
      <trkpt lat="47.6276" lon="-2.39698">
        <ele>86</ele>
        <time>2023-12-07T15:44:26.949Z</time>
      </trkpt>
      <trkpt lat="47.6269" lon="-2.39653">
        <ele>85</ele>
        <time>2023-12-07T15:44:36.571Z</time>
      </trkpt>
      <trkpt lat="47.62669" lon="-2.39675">
        <ele>84</ele>
        <time>2023-12-07T15:44:39.124Z</time>
      </trkpt>
      <trkpt lat="47.6269" lon="-2.39653">
        <ele>85</ele>
        <time>2023-12-07T15:44:42.544Z</time>
      </trkpt>
      <trkpt lat="47.62653" lon="-2.39601">
        <ele>84</ele>
        <time>2023-12-07T15:44:50.326Z</time>
      </trkpt>
      <trkpt lat="47.6257" lon="-2.39526">
        <ele>82</ele>
        <time>2023-12-07T15:45:00.506Z</time>
      </trkpt>
      <trkpt lat="47.62377" lon="-2.39228">
        <ele>77</ele>
        <time>2023-12-07T15:45:29.930Z</time>
      </trkpt>
      <trkpt lat="47.62377" lon="-2.39033">
        <ele>76</ele>
        <time>2023-12-07T15:45:45.082Z</time>
      </trkpt>
      <trkpt lat="47.62364" lon="-2.38927">
        <ele>76</ele>
        <time>2023-12-07T15:45:54.663Z</time>
      </trkpt>
      <trkpt lat="47.62355" lon="-2.38909">
        <ele>76</ele>
        <time>2023-12-07T15:45:56.780Z</time>
      </trkpt>
      <trkpt lat="47.6229" lon="-2.3886">
        <ele>73</ele>
        <time>2023-12-07T15:46:04.481Z</time>
      </trkpt>
      <trkpt lat="47.62235" lon="-2.38644">
        <ele>77</ele>
        <time>2023-12-07T15:46:23.211Z</time>
      </trkpt>
      <trkpt lat="47.62215" lon="-2.38522">
        <ele>81</ele>
        <time>2023-12-07T15:46:44.305Z</time>
      </trkpt>
      <trkpt lat="47.62208" lon="-2.38356">
        <ele>83</ele>
        <time>2023-12-07T15:47:10.883Z</time>
      </trkpt>
      <trkpt lat="47.62062" lon="-2.37851">
        <ele>76</ele>
        <time>2023-12-07T15:48:01.113Z</time>
      </trkpt>
      <trkpt lat="47.62018" lon="-2.37589">
        <ele>76</ele>
        <time>2023-12-07T15:48:22.974Z</time>
      </trkpt>
      <trkpt lat="47.62021" lon="-2.37556">
        <ele>75</ele>
        <time>2023-12-07T15:48:25.285Z</time>
      </trkpt>
      <trkpt lat="47.62075" lon="-2.37515">
        <ele>69</ele>
        <time>2023-12-07T15:48:29.538Z</time>
      </trkpt>
      <trkpt lat="47.62082" lon="-2.3748">
        <ele>68</ele>
        <time>2023-12-07T15:48:31.292Z</time>
      </trkpt>
      <trkpt lat="47.61969" lon="-2.37104">
        <ele>72</ele>
        <time>2023-12-07T15:49:02.709Z</time>
      </trkpt>
      <trkpt lat="47.61883" lon="-2.36879">
        <ele>74</ele>
        <time>2023-12-07T15:49:32.265Z</time>
      </trkpt>
      <trkpt lat="47.6181" lon="-2.36727">
        <ele>70</ele>
        <time>2023-12-07T15:49:47.192Z</time>
      </trkpt>
      <trkpt lat="47.61789" lon="-2.36658">
        <ele>68</ele>
        <time>2023-12-07T15:49:51.712Z</time>
      </trkpt>
      <trkpt lat="47.61707" lon="-2.36212">
        <ele>70</ele>
        <time>2023-12-07T15:50:26.098Z</time>
      </trkpt>
      <trkpt lat="47.6169" lon="-2.36113">
        <ele>68</ele>
        <time>2023-12-07T15:50:34.200Z</time>
      </trkpt>
      <trkpt lat="47.6126" lon="-2.35864">
        <ele>71</ele>
        <time>2023-12-07T15:51:28.510Z</time>
      </trkpt>
      <trkpt lat="47.61195" lon="-2.35855">
        <ele>69</ele>
        <time>2023-12-07T15:51:36.113Z</time>
      </trkpt>
      <trkpt lat="47.61154" lon="-2.35888">
        <ele>67</ele>
        <time>2023-12-07T15:51:40.201Z</time>
      </trkpt>
      <trkpt lat="47.61118" lon="-2.35962">
        <ele>66</ele>
        <time>2023-12-07T15:51:46.009Z</time>
      </trkpt>
      <trkpt lat="47.61095" lon="-2.35971">
        <ele>65</ele>
        <time>2023-12-07T15:51:48.261Z</time>
      </trkpt>
      <trkpt lat="47.60974" lon="-2.35926">
        <ele>57</ele>
        <time>2023-12-07T15:51:57.762Z</time>
      </trkpt>
      <trkpt lat="47.60648" lon="-2.35944">
        <ele>31</ele>
        <time>2023-12-07T15:52:19.544Z</time>
      </trkpt>
      <trkpt lat="47.60517" lon="-2.3588">
        <ele>30</ele>
        <time>2023-12-07T15:52:31.149Z</time>
      </trkpt>
      <trkpt lat="47.60484" lon="-2.35884">
        <ele>33</ele>
        <time>2023-12-07T15:52:37.777Z</time>
      </trkpt>
      <trkpt lat="47.60386" lon="-2.35978">
        <ele>37</ele>
        <time>2023-12-07T15:53:17.136Z</time>
      </trkpt>
      <trkpt lat="47.60354" lon="-2.36024">
        <ele>35</ele>
        <time>2023-12-07T15:53:22.582Z</time>
      </trkpt>
      <trkpt lat="47.6033" lon="-2.36034">
        <ele>34</ele>
        <time>2023-12-07T15:53:24.640Z</time>
      </trkpt>
      <trkpt lat="47.60212" lon="-2.35958">
        <ele>38</ele>
        <time>2023-12-07T15:53:40.737Z</time>
      </trkpt>
      <trkpt lat="47.60189" lon="-2.35928">
        <ele>38</ele>
        <time>2023-12-07T15:53:46.178Z</time>
      </trkpt>
      <trkpt lat="47.60156" lon="-2.35847">
        <ele>39</ele>
        <time>2023-12-07T15:53:56.263Z</time>
      </trkpt>
      <trkpt lat="47.60068" lon="-2.35528">
        <ele>44</ele>
        <time>2023-12-07T15:54:40.946Z</time>
      </trkpt>
      <trkpt lat="47.60028" lon="-2.35432">
        <ele>45</ele>
        <time>2023-12-07T15:54:55.228Z</time>
      </trkpt>
      <trkpt lat="47.60009" lon="-2.35407">
        <ele>44</ele>
        <time>2023-12-07T15:54:58.135Z</time>
      </trkpt>
      <trkpt lat="47.59978" lon="-2.35396">
        <ele>44</ele>
        <time>2023-12-07T15:55:01.519Z</time>
      </trkpt>
      <trkpt lat="47.59913" lon="-2.35403">
        <ele>49</ele>
        <time>2023-12-07T15:55:15.404Z</time>
      </trkpt>
      <trkpt lat="47.59774" lon="-2.35326">
        <ele>54</ele>
        <time>2023-12-07T15:56:03.146Z</time>
      </trkpt>
      <trkpt lat="47.59571" lon="-2.35325">
        <ele>61</ele>
        <time>2023-12-07T15:56:54.149Z</time>
      </trkpt>
      <trkpt lat="47.59433" lon="-2.35268">
        <ele>62</ele>
        <time>2023-12-07T15:57:21.525Z</time>
      </trkpt>
      <trkpt lat="47.59269" lon="-2.35233">
        <ele>65</ele>
        <time>2023-12-07T15:57:49.765Z</time>
      </trkpt>
      <trkpt lat="47.58934" lon="-2.35192">
        <ele>75</ele>
        <time>2023-12-07T15:59:00.190Z</time>
      </trkpt>
      <trkpt lat="47.58873" lon="-2.35244">
        <ele>75</ele>
        <time>2023-12-07T15:59:12.516Z</time>
      </trkpt>
      <trkpt lat="47.58861" lon="-2.35286">
        <ele>74</ele>
        <time>2023-12-07T15:59:15.920Z</time>
      </trkpt>
      <trkpt lat="47.58633" lon="-2.35505">
        <ele>78</ele>
        <time>2023-12-07T15:59:49.315Z</time>
      </trkpt>
      <trkpt lat="47.58563" lon="-2.35553">
        <ele>79</ele>
        <time>2023-12-07T16:00:03.211Z</time>
      </trkpt>
      <trkpt lat="47.58247" lon="-2.35653">
        <ele>77</ele>
        <time>2023-12-07T16:00:50.163Z</time>
      </trkpt>
      <trkpt lat="47.58142" lon="-2.35667">
        <ele>82</ele>
        <time>2023-12-07T16:01:08.996Z</time>
      </trkpt>
      <trkpt lat="47.58088" lon="-2.35648">
        <ele>83</ele>
        <time>2023-12-07T16:01:22.105Z</time>
      </trkpt>
      <trkpt lat="47.58041" lon="-2.35607">
        <ele>85</ele>
        <time>2023-12-07T16:01:34.300Z</time>
      </trkpt>
      <trkpt lat="47.58002" lon="-2.35625">
        <ele>87</ele>
        <time>2023-12-07T16:01:46.337Z</time>
      </trkpt>
      <trkpt lat="47.58021" lon="-2.35613">
        <ele>86</ele>
        <time>2023-12-07T16:01:48.995Z</time>
      </trkpt>
      <trkpt lat="47.57914" lon="-2.355">
        <ele>87</ele>
        <time>2023-12-07T16:02:03.013Z</time>
      </trkpt>
      <trkpt lat="47.57866" lon="-2.35307">
        <ele>89</ele>
        <time>2023-12-07T16:02:25.861Z</time>
      </trkpt>
      <trkpt lat="47.57842" lon="-2.35171">
        <ele>91</ele>
        <time>2023-12-07T16:02:43.347Z</time>
      </trkpt>
      <trkpt lat="47.57717" lon="-2.3475">
        <ele>81</ele>
        <time>2023-12-07T16:03:22.019Z</time>
      </trkpt>
      <trkpt lat="47.57665" lon="-2.34436">
        <ele>84</ele>
        <time>2023-12-07T16:03:48.119Z</time>
      </trkpt>
      <trkpt lat="47.57644" lon="-2.34372">
        <ele>83</ele>
        <time>2023-12-07T16:03:54.493Z</time>
      </trkpt>
      <trkpt lat="47.57606" lon="-2.34313">
        <ele>85</ele>
        <time>2023-12-07T16:04:02.756Z</time>
      </trkpt>
      <trkpt lat="47.57518" lon="-2.34212">
        <ele>88</ele>
        <time>2023-12-07T16:04:29.142Z</time>
      </trkpt>
      <trkpt lat="47.57461" lon="-2.34105">
        <ele>78</ele>
        <time>2023-12-07T16:04:38.011Z</time>
      </trkpt>
      <trkpt lat="47.57372" lon="-2.3374">
        <ele>77</ele>
        <time>2023-12-07T16:05:00.204Z</time>
      </trkpt>
      <trkpt lat="47.57293" lon="-2.33581">
        <ele>75</ele>
        <time>2023-12-07T16:05:16.581Z</time>
      </trkpt>
      <trkpt lat="47.5726" lon="-2.33481">
        <ele>72</ele>
        <time>2023-12-07T16:05:23.856Z</time>
      </trkpt>
      <trkpt lat="47.5725" lon="-2.33339">
        <ele>71</ele>
        <time>2023-12-07T16:05:33.377Z</time>
      </trkpt>
      <trkpt lat="47.57251" lon="-2.33107">
        <ele>71</ele>
        <time>2023-12-07T16:05:53.399Z</time>
      </trkpt>
      <trkpt lat="47.57188" lon="-2.32432">
        <ele>65</ele>
        <time>2023-12-07T16:06:51.383Z</time>
      </trkpt>
      <trkpt lat="47.57193" lon="-2.3238">
        <ele>64</ele>
        <time>2023-12-07T16:06:55.071Z</time>
      </trkpt>
      <trkpt lat="47.57235" lon="-2.32265">
        <ele>65</ele>
        <time>2023-12-07T16:07:05.853Z</time>
      </trkpt>
      <trkpt lat="47.57333" lon="-2.32167">
        <ele>69</ele>
        <time>2023-12-07T16:07:29.902Z</time>
      </trkpt>
      <trkpt lat="47.57344" lon="-2.32075">
        <ele>71</ele>
        <time>2023-12-07T16:07:45.430Z</time>
      </trkpt>
      <trkpt lat="47.57326" lon="-2.32018">
        <ele>70</ele>
        <time>2023-12-07T16:07:51.461Z</time>
      </trkpt>
      <trkpt lat="47.57317" lon="-2.31915">
        <ele>69</ele>
        <time>2023-12-07T16:07:58.925Z</time>
      </trkpt>
      <trkpt lat="47.57336" lon="-2.31775">
        <ele>69</ele>
        <time>2023-12-07T16:08:10.980Z</time>
      </trkpt>
      <trkpt lat="47.57349" lon="-2.31674">
        <ele>68</ele>
        <time>2023-12-07T16:08:19.711Z</time>
      </trkpt>
      <trkpt lat="47.57195" lon="-2.31665">
        <ele>63</ele>
        <time>2023-12-07T16:08:35.362Z</time>
      </trkpt>
      <trkpt lat="47.56998" lon="-2.31753">
        <ele>56</ele>
        <time>2023-12-07T16:08:54.018Z</time>
      </trkpt>
      <trkpt lat="47.56944" lon="-2.31755">
        <ele>56</ele>
        <time>2023-12-07T16:08:59.937Z</time>
      </trkpt>
      <trkpt lat="47.5684" lon="-2.31662">
        <ele>53</ele>
        <time>2023-12-07T16:09:14.070Z</time>
      </trkpt>
      <trkpt lat="47.56785" lon="-2.31653">
        <ele>50</ele>
        <time>2023-12-07T16:09:18.811Z</time>
      </trkpt>
      <trkpt lat="47.56511" lon="-2.31841">
        <ele>43</ele>
        <time>2023-12-07T16:09:45.002Z</time>
      </trkpt>
      <trkpt lat="47.56444" lon="-2.31988">
        <ele>45</ele>
        <time>2023-12-07T16:10:00.728Z</time>
      </trkpt>
      <trkpt lat="47.56373" lon="-2.32092">
        <ele>47</ele>
        <time>2023-12-07T16:10:20.651Z</time>
      </trkpt>
      <trkpt lat="47.56362" lon="-2.32126">
        <ele>45</ele>
        <time>2023-12-07T16:10:23.181Z</time>
      </trkpt>
      <trkpt lat="47.56349" lon="-2.32262">
        <ele>40</ele>
        <time>2023-12-07T16:10:29.626Z</time>
      </trkpt>
      <trkpt lat="47.56241" lon="-2.32516">
        <ele>30</ele>
        <time>2023-12-07T16:10:45.215Z</time>
      </trkpt>
      <trkpt lat="47.56161" lon="-2.32612">
        <ele>36</ele>
        <time>2023-12-07T16:10:58.559Z</time>
      </trkpt>
      <trkpt lat="47.56101" lon="-2.3271">
        <ele>35</ele>
        <time>2023-12-07T16:11:14.648Z</time>
      </trkpt>
      <trkpt lat="47.5608" lon="-2.32712">
        <ele>37</ele>
        <time>2023-12-07T16:11:18.737Z</time>
      </trkpt>
      <trkpt lat="47.55963" lon="-2.32669">
        <ele>34</ele>
        <time>2023-12-07T16:11:38.875Z</time>
      </trkpt>
      <trkpt lat="47.55866" lon="-2.32667">
        <ele>26</ele>
        <time>2023-12-07T16:11:46.321Z</time>
      </trkpt>
      <trkpt lat="47.55797" lon="-2.32642">
        <ele>24</ele>
        <time>2023-12-07T16:11:51.696Z</time>
      </trkpt>
      <trkpt lat="47.5561" lon="-2.32469">
        <ele>8</ele>
        <time>2023-12-07T16:12:08.955Z</time>
      </trkpt>
      <trkpt lat="47.55529" lon="-2.32413">
        <ele>9</ele>
        <time>2023-12-07T16:12:17.476Z</time>
      </trkpt>
      <trkpt lat="47.55436" lon="-2.32373">
        <ele>12</ele>
        <time>2023-12-07T16:12:36.741Z</time>
      </trkpt>
      <trkpt lat="47.55413" lon="-2.32375">
        <ele>16</ele>
        <time>2023-12-07T16:12:45.547Z</time>
      </trkpt>
      <trkpt lat="47.55259" lon="-2.32511">
        <ele>23</ele>
        <time>2023-12-07T16:14:01.425Z</time>
      </trkpt>
      <trkpt lat="47.55213" lon="-2.32532">
        <ele>32</ele>
        <time>2023-12-07T16:14:24.775Z</time>
      </trkpt>
      <trkpt lat="47.55174" lon="-2.32533">
        <ele>37</ele>
        <time>2023-12-07T16:15:04.772Z</time>
      </trkpt>
      <trkpt lat="47.55127" lon="-2.32515">
        <ele>37</ele>
        <time>2023-12-07T16:15:16.089Z</time>
      </trkpt>
      <trkpt lat="47.54982" lon="-2.32337">
        <ele>44</ele>
        <time>2023-12-07T16:15:50.913Z</time>
      </trkpt>
      <trkpt lat="47.54902" lon="-2.32187">
        <ele>53</ele>
        <time>2023-12-07T16:16:32.858Z</time>
      </trkpt>
      <trkpt lat="47.54873" lon="-2.32162">
        <ele>53</ele>
        <time>2023-12-07T16:16:39.842Z</time>
      </trkpt>
      <trkpt lat="47.54747" lon="-2.32106">
        <ele>55</ele>
        <time>2023-12-07T16:17:00.685Z</time>
      </trkpt>
      <trkpt lat="47.54703" lon="-2.32116">
        <ele>56</ele>
        <time>2023-12-07T16:17:09.218Z</time>
      </trkpt>
      <trkpt lat="47.54635" lon="-2.32156">
        <ele>57</ele>
        <time>2023-12-07T16:17:22.991Z</time>
      </trkpt>
      <trkpt lat="47.54543" lon="-2.32172">
        <ele>55</ele>
        <time>2023-12-07T16:17:35.011Z</time>
      </trkpt>
      <trkpt lat="47.54482" lon="-2.32215">
        <ele>52</ele>
        <time>2023-12-07T16:17:41.149Z</time>
      </trkpt>
      <trkpt lat="47.54267" lon="-2.32309">
        <ele>50</ele>
        <time>2023-12-07T16:18:03.032Z</time>
      </trkpt>
      <trkpt lat="47.54179" lon="-2.32367">
        <ele>50</ele>
        <time>2023-12-07T16:18:15.582Z</time>
      </trkpt>
      <trkpt lat="47.54165" lon="-2.3241">
        <ele>51</ele>
        <time>2023-12-07T16:18:21.307Z</time>
      </trkpt>
      <trkpt lat="47.5419" lon="-2.32679">
        <ele>51</ele>
        <time>2023-12-07T16:18:53.869Z</time>
      </trkpt>
      <trkpt lat="47.5423" lon="-2.32762">
        <ele>52</ele>
        <time>2023-12-07T16:19:04.916Z</time>
      </trkpt>
      <trkpt lat="47.54301" lon="-2.3296">
        <ele>54</ele>
        <time>2023-12-07T16:19:32.501Z</time>
      </trkpt>
      <trkpt lat="47.543" lon="-2.33077">
        <ele>53</ele>
        <time>2023-12-07T16:19:43.376Z</time>
      </trkpt>
      <trkpt lat="47.54307" lon="-2.3317">
        <ele>53</ele>
        <time>2023-12-07T16:19:51.264Z</time>
      </trkpt>
      <trkpt lat="47.54332" lon="-2.33235">
        <ele>50</ele>
        <time>2023-12-07T16:19:56.093Z</time>
      </trkpt>
      <trkpt lat="47.5434" lon="-2.33288">
        <ele>50</ele>
        <time>2023-12-07T16:19:59.599Z</time>
      </trkpt>
      <trkpt lat="47.54328" lon="-2.33454">
        <ele>52</ele>
        <time>2023-12-07T16:20:17.822Z</time>
      </trkpt>
      <trkpt lat="47.54339" lon="-2.33562">
        <ele>53</ele>
        <time>2023-12-07T16:20:31.377Z</time>
      </trkpt>
      <trkpt lat="47.54335" lon="-2.33837">
        <ele>55</ele>
        <time>2023-12-07T16:21:03.546Z</time>
      </trkpt>
      <trkpt lat="47.54344" lon="-2.34012">
        <ele>52</ele>
        <time>2023-12-07T16:21:19.308Z</time>
      </trkpt>
      <trkpt lat="47.5434" lon="-2.34177">
        <ele>52</ele>
        <time>2023-12-07T16:21:33.009Z</time>
      </trkpt>
      <trkpt lat="47.54357" lon="-2.34416">
        <ele>53</ele>
        <time>2023-12-07T16:21:56.968Z</time>
      </trkpt>
      <trkpt lat="47.54352" lon="-2.34628">
        <ele>58</ele>
        <time>2023-12-07T16:22:24.839Z</time>
      </trkpt>
      <trkpt lat="47.54386" lon="-2.34835">
        <ele>63</ele>
        <time>2023-12-07T16:23:02.006Z</time>
      </trkpt>
      <trkpt lat="47.54372" lon="-2.3493">
        <ele>64</ele>
        <time>2023-12-07T16:23:16.038Z</time>
      </trkpt>
      <trkpt lat="47.54382" lon="-2.35025">
        <ele>64</ele>
        <time>2023-12-07T16:23:26.322Z</time>
      </trkpt>
      <trkpt lat="47.54427" lon="-2.35162">
        <ele>65</ele>
        <time>2023-12-07T16:23:43.168Z</time>
      </trkpt>
      <trkpt lat="47.54371" lon="-2.35203">
        <ele>65</ele>
        <time>2023-12-07T16:23:53.400Z</time>
      </trkpt>
      <trkpt lat="47.54285" lon="-2.35215">
        <ele>64</ele>
        <time>2023-12-07T16:24:04.405Z</time>
      </trkpt>
      <trkpt lat="47.54264" lon="-2.35239">
        <ele>63</ele>
        <time>2023-12-07T16:24:07.051Z</time>
      </trkpt>
      <trkpt lat="47.54261" lon="-2.3534">
        <ele>61</ele>
        <time>2023-12-07T16:24:13.226Z</time>
      </trkpt>
      <trkpt lat="47.5424" lon="-2.3544">
        <ele>60</ele>
        <time>2023-12-07T16:24:20.487Z</time>
      </trkpt>
      <trkpt lat="47.53867" lon="-2.3638">
        <ele>43</ele>
        <time>2023-12-07T16:25:39.565Z</time>
      </trkpt>
      <trkpt lat="47.53854" lon="-2.36438">
        <ele>43</ele>
        <time>2023-12-07T16:25:44.446Z</time>
      </trkpt>
      <trkpt lat="47.53855" lon="-2.36627">
        <ele>44</ele>
        <time>2023-12-07T16:26:03.514Z</time>
      </trkpt>
      <trkpt lat="47.53853" lon="-2.37405">
        <ele>46</ele>
        <time>2023-12-07T16:27:24.896Z</time>
      </trkpt>
      <trkpt lat="47.53872" lon="-2.37477">
        <ele>46</ele>
        <time>2023-12-07T16:27:32.462Z</time>
      </trkpt>
      <trkpt lat="47.53872" lon="-2.37546">
        <ele>46</ele>
        <time>2023-12-07T16:27:38.989Z</time>
      </trkpt>
      <trkpt lat="47.53764" lon="-2.37539">
        <ele>47</ele>
        <time>2023-12-07T16:27:54.173Z</time>
      </trkpt>
      <trkpt lat="47.53709" lon="-2.37555">
        <ele>46</ele>
        <time>2023-12-07T16:28:00.997Z</time>
      </trkpt>
      <trkpt lat="47.53744" lon="-2.37821">
        <ele>48</ele>
        <time>2023-12-07T16:28:25.034Z</time>
      </trkpt>
      <trkpt lat="47.53633" lon="-2.3785">
        <ele>47</ele>
        <time>2023-12-07T16:28:41.007Z</time>
      </trkpt>
      <trkpt lat="47.53404" lon="-2.37859">
        <ele>45</ele>
        <time>2023-12-07T16:29:09.004Z</time>
      </trkpt>
      <trkpt lat="47.53196" lon="-2.37942">
        <ele>48</ele>
        <time>2023-12-07T16:29:40.305Z</time>
      </trkpt>
      <trkpt lat="47.52907" lon="-2.3791">
        <ele>50</ele>
        <time>2023-12-07T16:30:28.274Z</time>
      </trkpt>
      <trkpt lat="47.52778" lon="-2.37924">
        <ele>47</ele>
        <time>2023-12-07T16:30:44.206Z</time>
      </trkpt>
      <trkpt lat="47.52645" lon="-2.37997">
        <ele>45</ele>
        <time>2023-12-07T16:30:59.444Z</time>
      </trkpt>
      <trkpt lat="47.52555" lon="-2.38019">
        <ele>44</ele>
        <time>2023-12-07T16:31:09.979Z</time>
      </trkpt>
      <trkpt lat="47.52543" lon="-2.38004">
        <ele>43</ele>
        <time>2023-12-07T16:31:11.305Z</time>
      </trkpt>
      <trkpt lat="47.52428" lon="-2.38004">
        <ele>41</ele>
        <time>2023-12-07T16:31:20.711Z</time>
      </trkpt>
      <trkpt lat="47.52383" lon="-2.37989">
        <ele>41</ele>
        <time>2023-12-07T16:31:26.349Z</time>
      </trkpt>
      <trkpt lat="47.51886" lon="-2.37718">
        <ele>46</ele>
        <time>2023-12-07T16:32:40.735Z</time>
      </trkpt>
      <trkpt lat="47.51703" lon="-2.37689">
        <ele>44</ele>
        <time>2023-12-07T16:33:04.470Z</time>
      </trkpt>
      <trkpt lat="47.51655" lon="-2.37666">
        <ele>44</ele>
        <time>2023-12-07T16:33:10.963Z</time>
      </trkpt>
      <trkpt lat="47.5165" lon="-2.37742">
        <ele>44</ele>
        <time>2023-12-07T16:33:18.191Z</time>
      </trkpt>
      <trkpt lat="47.51657" lon="-2.37853">
        <ele>43</ele>
        <time>2023-12-07T16:33:27.706Z</time>
      </trkpt>
      <trkpt lat="47.51648" lon="-2.37904">
        <ele>43</ele>
        <time>2023-12-07T16:33:32.205Z</time>
      </trkpt>
      <trkpt lat="47.51602" lon="-2.38028">
        <ele>42</ele>
        <time>2023-12-07T16:33:44.428Z</time>
      </trkpt>
      <trkpt lat="47.51519" lon="-2.38171">
        <ele>40</ele>
        <time>2023-12-07T16:33:58.924Z</time>
      </trkpt>
      <trkpt lat="47.51481" lon="-2.38283">
        <ele>38</ele>
        <time>2023-12-07T16:34:07.836Z</time>
      </trkpt>
      <trkpt lat="47.51453" lon="-2.38325">
        <ele>37</ele>
        <time>2023-12-07T16:34:11.813Z</time>
      </trkpt>
      <trkpt lat="47.5143" lon="-2.38453">
        <ele>38</ele>
        <time>2023-12-07T16:34:22.962Z</time>
      </trkpt>
      <trkpt lat="47.5136" lon="-2.38608">
        <ele>36</ele>
        <time>2023-12-07T16:34:39.753Z</time>
      </trkpt>
      <trkpt lat="47.51344" lon="-2.38713">
        <ele>35</ele>
        <time>2023-12-07T16:34:47.882Z</time>
      </trkpt>
      <trkpt lat="47.51271" lon="-2.3892">
        <ele>28</ele>
        <time>2023-12-07T16:35:02.839Z</time>
      </trkpt>
      <trkpt lat="47.5127" lon="-2.39015">
        <ele>27</ele>
        <time>2023-12-07T16:35:08.888Z</time>
      </trkpt>
      <trkpt lat="47.51258" lon="-2.39044">
        <ele>27</ele>
        <time>2023-12-07T16:35:11.745Z</time>
      </trkpt>
      <trkpt lat="47.51189" lon="-2.39121">
        <ele>29</ele>
        <time>2023-12-07T16:35:26.354Z</time>
      </trkpt>
      <trkpt lat="47.51161" lon="-2.39364">
        <ele>36</ele>
        <time>2023-12-07T16:36:06.895Z</time>
      </trkpt>
      <trkpt lat="47.51129" lon="-2.39499">
        <ele>39</ele>
        <time>2023-12-07T16:36:32.182Z</time>
      </trkpt>
      <trkpt lat="47.51157" lon="-2.39808">
        <ele>39</ele>
        <time>2023-12-07T16:37:09.590Z</time>
      </trkpt>
      <trkpt lat="47.51208" lon="-2.39988">
        <ele>38</ele>
        <time>2023-12-07T16:37:26.984Z</time>
      </trkpt>
      <trkpt lat="47.51156" lon="-2.40059">
        <ele>35</ele>
        <time>2023-12-07T16:37:34.054Z</time>
      </trkpt>
      <trkpt lat="47.51032" lon="-2.40376">
        <ele>23</ele>
        <time>2023-12-07T16:37:53.906Z</time>
      </trkpt>
      <trkpt lat="47.51005" lon="-2.40623">
        <ele>16</ele>
        <time>2023-12-07T16:38:07.432Z</time>
      </trkpt>
      <trkpt lat="47.50949" lon="-2.40989">
        <ele>7</ele>
        <time>2023-12-07T16:38:29.092Z</time>
      </trkpt>
      <trkpt lat="47.5095" lon="-2.41078">
        <ele>6</ele>
        <time>2023-12-07T16:38:35.111Z</time>
      </trkpt>
      <trkpt lat="47.51" lon="-2.41486">
        <ele>18</ele>
        <time>2023-12-07T16:39:21.349Z</time>
      </trkpt>
      <trkpt lat="47.50993" lon="-2.4163">
        <ele>23</ele>
        <time>2023-12-07T16:39:49.051Z</time>
      </trkpt>
      <trkpt lat="47.5101" lon="-2.42107">
        <ele>13</ele>
        <time>2023-12-07T16:40:33.868Z</time>
      </trkpt>
      <trkpt lat="47.50998" lon="-2.42177">
        <ele>11</ele>
        <time>2023-12-07T16:40:38.155Z</time>
      </trkpt>
      <trkpt lat="47.51004" lon="-2.42381">
        <ele>5</ele>
        <time>2023-12-07T16:40:50.661Z</time>
      </trkpt>
      <trkpt lat="47.50989" lon="-2.42422">
        <ele>4</ele>
        <time>2023-12-07T16:40:53.659Z</time>
      </trkpt>
      <trkpt lat="47.50884" lon="-2.42576">
        <ele>1</ele>
        <time>2023-12-07T16:41:08.144Z</time>
      </trkpt>
      <trkpt lat="47.50813" lon="-2.42639">
        <ele>3</ele>
        <time>2023-12-07T16:41:19.719Z</time>
      </trkpt>
      <trkpt lat="47.50684" lon="-2.42863">
        <ele>12</ele>
        <time>2023-12-07T16:42:08.320Z</time>
      </trkpt>
      <trkpt lat="47.50655" lon="-2.43002">
        <ele>14</ele>
        <time>2023-12-07T16:42:31.531Z</time>
      </trkpt>
      <trkpt lat="47.50616" lon="-2.43038">
        <ele>13</ele>
        <time>2023-12-07T16:42:37.751Z</time>
      </trkpt>
      <trkpt lat="47.50604" lon="-2.43063">
        <ele>13</ele>
        <time>2023-12-07T16:42:40.206Z</time>
      </trkpt>
      <trkpt lat="47.506" lon="-2.43119">
        <ele>14</ele>
        <time>2023-12-07T16:42:46.852Z</time>
      </trkpt>
      <trkpt lat="47.50536" lon="-2.43162">
        <ele>14</ele>
        <time>2023-12-07T16:42:59.129Z</time>
      </trkpt>
      <trkpt lat="47.50523" lon="-2.43195">
        <ele>15</ele>
        <time>2023-12-07T16:43:03.874Z</time>
      </trkpt>
      <trkpt lat="47.50519" lon="-2.4327">
        <ele>16</ele>
        <time>2023-12-07T16:43:14.775Z</time>
      </trkpt>
      <trkpt lat="47.50524" lon="-2.43349">
        <ele>18</ele>
        <time>2023-12-07T16:43:26.351Z</time>
      </trkpt>
      <trkpt lat="47.50543" lon="-2.43392">
        <ele>18</ele>
        <time>2023-12-07T16:43:32.770Z</time>
      </trkpt>
      <trkpt lat="47.50589" lon="-2.43428">
        <ele>17</ele>
        <time>2023-12-07T16:43:39.056Z</time>
      </trkpt>
      <trkpt lat="47.50612" lon="-2.43503">
        <ele>18</ele>
        <time>2023-12-07T16:43:46.635Z</time>
      </trkpt>
      <trkpt lat="47.50616" lon="-2.43693">
        <ele>22</ele>
        <time>2023-12-07T16:44:13.992Z</time>
      </trkpt>
      <trkpt lat="47.50632" lon="-2.43889">
        <ele>27</ele>
        <time>2023-12-07T16:44:47.769Z</time>
      </trkpt>
      <trkpt lat="47.50642" lon="-2.43912">
        <ele>27</ele>
        <time>2023-12-07T16:44:51.156Z</time>
      </trkpt>
      <trkpt lat="47.5079" lon="-2.44017">
        <ele>24</ele>
        <time>2023-12-07T16:45:11.136Z</time>
      </trkpt>
      <trkpt lat="47.50846" lon="-2.44119">
        <ele>20</ele>
        <time>2023-12-07T16:45:19.352Z</time>
      </trkpt>
      <trkpt lat="47.50877" lon="-2.4414">
        <ele>19</ele>
        <time>2023-12-07T16:45:22.323Z</time>
      </trkpt>
      <trkpt lat="47.50974" lon="-2.44147">
        <ele>18</ele>
        <time>2023-12-07T16:45:32.616Z</time>
      </trkpt>
      <trkpt lat="47.51008" lon="-2.44163">
        <ele>18</ele>
        <time>2023-12-07T16:45:37.255Z</time>
      </trkpt>
      <trkpt lat="47.51047" lon="-2.4423">
        <ele>18</ele>
        <time>2023-12-07T16:45:45.628Z</time>
      </trkpt>
      <trkpt lat="47.51049" lon="-2.44321">
        <ele>17</ele>
        <time>2023-12-07T16:45:53.202Z</time>
      </trkpt>
      <trkpt lat="47.51138" lon="-2.44652">
        <ele>17</ele>
        <time>2023-12-07T16:46:22.842Z</time>
      </trkpt>
      <trkpt lat="47.51187" lon="-2.44792">
        <ele>18</ele>
        <time>2023-12-07T16:46:37.800Z</time>
      </trkpt>
      <trkpt lat="47.5132" lon="-2.44835">
        <ele>19</ele>
        <time>2023-12-07T16:46:58.241Z</time>
      </trkpt>
      <trkpt lat="47.51378" lon="-2.44894">
        <ele>17</ele>
        <time>2023-12-07T16:47:06.669Z</time>
      </trkpt>
      <trkpt lat="47.51646" lon="-2.45057">
        <ele>18</ele>
        <time>2023-12-07T16:47:40.225Z</time>
      </trkpt>
      <trkpt lat="47.51873" lon="-2.45249">
        <ele>17</ele>
        <time>2023-12-07T16:48:17.190Z</time>
      </trkpt>
      <trkpt lat="47.52116" lon="-2.45544">
        <ele>16</ele>
        <time>2023-12-07T16:48:59.352Z</time>
      </trkpt>
      <trkpt lat="47.52279" lon="-2.45839">
        <ele>11</ele>
        <time>2023-12-07T16:49:29.693Z</time>
      </trkpt>
      <trkpt lat="47.52518" lon="-2.4606">
        <ele>9</ele>
        <time>2023-12-07T16:50:02.178Z</time>
      </trkpt>
      <trkpt lat="47.5251" lon="-2.46378">
        <ele>8</ele>
        <time>2023-12-07T16:50:29.665Z</time>
      </trkpt>
      <trkpt lat="47.52523" lon="-2.46523">
        <ele>9</ele>
        <time>2023-12-07T16:50:44.084Z</time>
      </trkpt>
      <trkpt lat="47.52739" lon="-2.46907">
        <ele>19</ele>
        <time>2023-12-07T16:51:50.384Z</time>
      </trkpt>
      <trkpt lat="47.5276" lon="-2.46961">
        <ele>17</ele>
        <time>2023-12-07T16:51:55.405Z</time>
      </trkpt>
      <trkpt lat="47.52792" lon="-2.47198">
        <ele>9</ele>
        <time>2023-12-07T16:52:08.310Z</time>
      </trkpt>
      <trkpt lat="47.52699" lon="-2.47488">
        <ele>4</ele>
        <time>2023-12-07T16:52:27.592Z</time>
      </trkpt>
      <trkpt lat="47.52702" lon="-2.47583">
        <ele>4</ele>
        <time>2023-12-07T16:52:35.190Z</time>
      </trkpt>
      <trkpt lat="47.52753" lon="-2.47758">
        <ele>8</ele>
        <time>2023-12-07T16:52:58.053Z</time>
      </trkpt>
      <trkpt lat="47.52778" lon="-2.47956">
        <ele>12</ele>
        <time>2023-12-07T16:53:30.791Z</time>
      </trkpt>
      <trkpt lat="47.52838" lon="-2.48126">
        <ele>15</ele>
        <time>2023-12-07T16:53:59.963Z</time>
      </trkpt>
      <trkpt lat="47.52849" lon="-2.48284">
        <ele>15</ele>
        <time>2023-12-07T16:54:18.096Z</time>
      </trkpt>
      <trkpt lat="47.52879" lon="-2.48433">
        <ele>16</ele>
        <time>2023-12-07T16:54:35.292Z</time>
      </trkpt>
      <trkpt lat="47.52927" lon="-2.48595">
        <ele>17</ele>
        <time>2023-12-07T16:54:56.572Z</time>
      </trkpt>
      <trkpt lat="47.52996" lon="-2.48812">
        <ele>19</ele>
        <time>2023-12-07T16:55:23.881Z</time>
      </trkpt>
      <trkpt lat="47.53057" lon="-2.48872">
        <ele>20</ele>
        <time>2023-12-07T16:55:36.744Z</time>
      </trkpt>
      <trkpt lat="47.53135" lon="-2.48893">
        <ele>22</ele>
        <time>2023-12-07T16:55:51.848Z</time>
      </trkpt>
      <trkpt lat="47.53181" lon="-2.48969">
        <ele>22</ele>
        <time>2023-12-07T16:56:03.376Z</time>
      </trkpt>
      <trkpt lat="47.5319" lon="-2.49003">
        <ele>21</ele>
        <time>2023-12-07T16:56:05.976Z</time>
      </trkpt>
      <trkpt lat="47.53304" lon="-2.48987">
        <ele>15</ele>
        <time>2023-12-07T16:56:15.169Z</time>
      </trkpt>
      <trkpt lat="47.53522" lon="-2.49037">
        <ele>3</ele>
        <time>2023-12-07T16:56:31.890Z</time>
      </trkpt>
      <trkpt lat="47.53565" lon="-2.49033">
        <ele>5</ele>
        <time>2023-12-07T16:56:37.120Z</time>
      </trkpt>
      <trkpt lat="47.53677" lon="-2.48991">
        <ele>9</ele>
        <time>2023-12-07T16:57:09.359Z</time>
      </trkpt>
      <trkpt lat="47.53807" lon="-2.48877">
        <ele>9</ele>
        <time>2023-12-07T16:57:36.501Z</time>
      </trkpt>
      <trkpt lat="47.54078" lon="-2.48614">
        <ele>16</ele>
        <time>2023-12-07T16:58:30.410Z</time>
      </trkpt>
      <trkpt lat="47.54214" lon="-2.48515">
        <ele>19</ele>
        <time>2023-12-07T16:58:59.368Z</time>
      </trkpt>
      <trkpt lat="47.54544" lon="-2.48334">
        <ele>15</ele>
        <time>2023-12-07T16:59:49.574Z</time>
      </trkpt>
      <trkpt lat="47.54616" lon="-2.48266">
        <ele>14</ele>
        <time>2023-12-07T16:59:59.620Z</time>
      </trkpt>
      <trkpt lat="47.54752" lon="-2.48085">
        <ele>3</ele>
        <time>2023-12-07T17:00:15.916Z</time>
      </trkpt>
      <trkpt lat="47.54819" lon="-2.48059">
        <ele>4</ele>
        <time>2023-12-07T17:00:23.129Z</time>
      </trkpt>
      <trkpt lat="47.54851" lon="-2.48022">
        <ele>6</ele>
        <time>2023-12-07T17:00:32.753Z</time>
      </trkpt>
      <trkpt lat="47.54859" lon="-2.48047">
        <ele>5</ele>
        <time>2023-12-07T17:00:34.975Z</time>
      </trkpt>
      <trkpt lat="47.54904" lon="-2.48084">
        <ele>5</ele>
        <time>2023-12-07T17:00:39.915Z</time>
      </trkpt>
      <trkpt lat="47.55011" lon="-2.48118">
        <ele>9</ele>
        <time>2023-12-07T17:00:59.689Z</time>
      </trkpt>
      <trkpt lat="47.551" lon="-2.4818">
        <ele>13</ele>
        <time>2023-12-07T17:01:25.107Z</time>
      </trkpt>
      <trkpt lat="47.55177" lon="-2.48208">
        <ele>15</ele>
        <time>2023-12-07T17:01:43.489Z</time>
      </trkpt>
      <trkpt lat="47.55283" lon="-2.48195">
        <ele>20</ele>
        <time>2023-12-07T17:02:09.793Z</time>
      </trkpt>
      <trkpt lat="47.55298" lon="-2.48215">
        <ele>20</ele>
        <time>2023-12-07T17:02:13.673Z</time>
      </trkpt>
      <trkpt lat="47.55372" lon="-2.48192">
        <ele>23</ele>
        <time>2023-12-07T17:02:27.697Z</time>
      </trkpt>
    </trkseg>
  </trk>
</gpx>